sensor_id;sensor_type;location;lat;lon;timestamp;P1;durP1;ratioP1;P2;durP2;ratioP2
6023;SDS011;3040;42.654;23.296;2023-05-23T00:01:37;5.47;;;5.03;;
6023;SDS011;3040;42.654;23.296;2023-05-23T00:04:04;4.70;;;4.40;;
6023;SDS011;3040;42.654;23.296;2023-05-23T00:06:34;5.73;;;5.23;;
6023;SDS011;3040;42.654;23.296;2023-05-23T00:09:03;5.20;;;4.77;;
6023;SDS011;3040;42.654;23.296;2023-05-23T00:11:29;6.30;;;5.70;;
6023;SDS011;3040;42.654;23.296;2023-05-23T00:13:56;5.43;;;5.10;;
6023;SDS011;3040;42.654;23.296;2023-05-23T00:16:25;5.30;;;5.00;;
6023;SDS011;3040;42.654;23.296;2023-05-23T00:18:52;5.57;;;5.07;;
6023;SDS011;3040;42.654;23.296;2023-05-23T00:21:21;6.60;;;6.03;;
6023;SDS011;3040;42.654;23.296;2023-05-23T00:23:49;6.70;;;6.33;;
6023;SDS011;3040;42.654;23.296;2023-05-23T00:26:17;5.70;;;5.40;;
6023;SDS011;3040;42.654;23.296;2023-05-23T00:28:45;5.77;;;5.03;;
6023;SDS011;3040;42.654;23.296;2023-05-23T00:31:12;5.87;;;5.57;;
6023;SDS011;3040;42.654;23.296;2023-05-23T00:33:39;6.20;;;5.80;;
6023;SDS011;3040;42.654;23.296;2023-05-23T00:36:06;4.40;;;3.93;;
6023;SDS011;3040;42.654;23.296;2023-05-23T00:38:33;5.63;;;4.37;;
6023;SDS011;3040;42.654;23.296;2023-05-23T00:41:01;5.97;;;4.90;;
6023;SDS011;3040;42.654;23.296;2023-05-23T00:43:28;5.47;;;4.90;;
6023;SDS011;3040;42.654;23.296;2023-05-23T00:45:55;5.33;;;4.90;;
6023;SDS011;3040;42.654;23.296;2023-05-23T00:48:23;5.10;;;4.60;;
6023;SDS011;3040;42.654;23.296;2023-05-23T00:50:50;6.13;;;3.97;;
6023;SDS011;3040;42.654;23.296;2023-05-23T00:53:18;3.80;;;3.50;;
6023;SDS011;3040;42.654;23.296;2023-05-23T00:55:45;3.57;;;3.37;;
6023;SDS011;3040;42.654;23.296;2023-05-23T00:58:13;9.60;;;3.30;;
6023;SDS011;3040;42.654;23.296;2023-05-23T01:00:41;5.87;;;3.30;;
6023;SDS011;3040;42.654;23.296;2023-05-23T01:03:10;3.93;;;3.50;;
6023;SDS011;3040;42.654;23.296;2023-05-23T01:05:42;2.77;;;2.63;;
6023;SDS011;3040;42.654;23.296;2023-05-23T01:08:09;6.47;;;2.87;;
6023;SDS011;3040;42.654;23.296;2023-05-23T01:10:36;3.60;;;3.30;;
6023;SDS011;3040;42.654;23.296;2023-05-23T01:13:07;3.30;;;3.10;;
6023;SDS011;3040;42.654;23.296;2023-05-23T01:15:47;3.17;;;2.90;;
6023;SDS011;3040;42.654;23.296;2023-05-23T01:18:21;8.67;;;2.80;;
6023;SDS011;3040;42.654;23.296;2023-05-23T01:20:53;6.63;;;3.40;;
6023;SDS011;3040;42.654;23.296;2023-05-23T01:26:39;4.17;;;3.77;;
6023;SDS011;3040;42.654;23.296;2023-05-23T01:29:21;8.30;;;5.73;;
6023;SDS011;3040;42.654;23.296;2023-05-23T01:31:51;6.10;;;5.60;;
6023;SDS011;3040;42.654;23.296;2023-05-23T01:34:20;3.87;;;3.57;;
6023;SDS011;3040;42.654;23.296;2023-05-23T01:36:48;4.30;;;3.63;;
6023;SDS011;3040;42.654;23.296;2023-05-23T01:39:16;4.07;;;3.80;;
6023;SDS011;3040;42.654;23.296;2023-05-23T01:41:43;7.10;;;3.93;;
6023;SDS011;3040;42.654;23.296;2023-05-23T01:44:10;6.93;;;4.40;;
6023;SDS011;3040;42.654;23.296;2023-05-23T01:46:38;4.50;;;4.13;;
6023;SDS011;3040;42.654;23.296;2023-05-23T01:49:07;4.60;;;4.30;;
6023;SDS011;3040;42.654;23.296;2023-05-23T01:51:36;5.13;;;4.93;;
6023;SDS011;3040;42.654;23.296;2023-05-23T01:54:04;4.37;;;4.17;;
6023;SDS011;3040;42.654;23.296;2023-05-23T01:56:31;6.47;;;4.57;;
6023;SDS011;3040;42.654;23.296;2023-05-23T01:58:58;6.47;;;6.00;;
6023;SDS011;3040;42.654;23.296;2023-05-23T02:01:26;7.93;;;7.37;;
6023;SDS011;3040;42.654;23.296;2023-05-23T02:03:54;7.20;;;6.60;;
6023;SDS011;3040;42.654;23.296;2023-05-23T02:06:21;6.83;;;6.23;;
6023;SDS011;3040;42.654;23.296;2023-05-23T02:08:48;6.27;;;5.83;;
6023;SDS011;3040;42.654;23.296;2023-05-23T02:11:15;4.40;;;4.10;;
6023;SDS011;3040;42.654;23.296;2023-05-23T02:13:42;4.30;;;3.90;;
6023;SDS011;3040;42.654;23.296;2023-05-23T02:16:08;4.60;;;4.40;;
6023;SDS011;3040;42.654;23.296;2023-05-23T02:18:35;4.70;;;4.40;;
6023;SDS011;3040;42.654;23.296;2023-05-23T02:21:05;5.37;;;4.43;;
6023;SDS011;3040;42.654;23.296;2023-05-23T02:23:32;4.90;;;4.50;;
6023;SDS011;3040;42.654;23.296;2023-05-23T02:25:59;6.83;;;6.33;;
6023;SDS011;3040;42.654;23.296;2023-05-23T02:28:25;13.67;;;7.90;;
6023;SDS011;3040;42.654;23.296;2023-05-23T02:30:52;6.30;;;5.90;;
6023;SDS011;3040;42.654;23.296;2023-05-23T02:33:19;9.83;;;7.77;;
6023;SDS011;3040;42.654;23.296;2023-05-23T02:35:46;12.23;;;10.97;;
6023;SDS011;3040;42.654;23.296;2023-05-23T02:38:16;7.20;;;6.50;;
6023;SDS011;3040;42.654;23.296;2023-05-23T02:40:44;6.73;;;6.23;;
6023;SDS011;3040;42.654;23.296;2023-05-23T02:43:11;6.57;;;6.10;;
6023;SDS011;3040;42.654;23.296;2023-05-23T02:45:38;5.83;;;5.43;;
6023;SDS011;3040;42.654;23.296;2023-05-23T02:48:05;4.43;;;4.13;;
6023;SDS011;3040;42.654;23.296;2023-05-23T02:50:32;4.93;;;4.53;;
6023;SDS011;3040;42.654;23.296;2023-05-23T02:52:58;4.00;;;3.80;;
6023;SDS011;3040;42.654;23.296;2023-05-23T02:55:27;4.53;;;3.60;;
6023;SDS011;3040;42.654;23.296;2023-05-23T02:57:53;4.70;;;4.40;;
6023;SDS011;3040;42.654;23.296;2023-05-23T03:00:20;5.07;;;4.87;;
6023;SDS011;3040;42.654;23.296;2023-05-23T03:02:47;6.00;;;5.10;;
6023;SDS011;3040;42.654;23.296;2023-05-23T03:05:14;7.10;;;6.67;;
6023;SDS011;3040;42.654;23.296;2023-05-23T03:07:41;6.43;;;5.93;;
6023;SDS011;3040;42.654;23.296;2023-05-23T03:10:08;6.77;;;6.17;;
6023;SDS011;3040;42.654;23.296;2023-05-23T03:12:37;7.60;;;6.80;;
6023;SDS011;3040;42.654;23.296;2023-05-23T03:15:04;7.13;;;6.60;;
6023;SDS011;3040;42.654;23.296;2023-05-23T03:17:31;17.13;;;13.17;;
6023;SDS011;3040;42.654;23.296;2023-05-23T03:19:58;11.93;;;9.17;;
6023;SDS011;3040;42.654;23.296;2023-05-23T03:22:25;7.30;;;6.90;;
6023;SDS011;3040;42.654;23.296;2023-05-23T03:24:52;6.93;;;6.63;;
6023;SDS011;3040;42.654;23.296;2023-05-23T03:27:19;7.13;;;6.60;;
6023;SDS011;3040;42.654;23.296;2023-05-23T03:29:47;9.50;;;8.60;;
6023;SDS011;3040;42.654;23.296;2023-05-23T03:32:14;10.87;;;9.57;;
6023;SDS011;3040;42.654;23.296;2023-05-23T03:34:40;12.30;;;9.40;;
6023;SDS011;3040;42.654;23.296;2023-05-23T03:37:07;7.43;;;6.47;;
6023;SDS011;3040;42.654;23.296;2023-05-23T03:39:35;8.63;;;7.00;;
6023;SDS011;3040;42.654;23.296;2023-05-23T03:42:02;7.77;;;6.90;;
6023;SDS011;3040;42.654;23.296;2023-05-23T03:44:29;8.37;;;6.80;;
6023;SDS011;3040;42.654;23.296;2023-05-23T03:46:57;7.17;;;6.67;;
6023;SDS011;3040;42.654;23.296;2023-05-23T03:49:24;6.03;;;5.57;;
6023;SDS011;3040;42.654;23.296;2023-05-23T03:51:51;11.67;;;8.93;;
6023;SDS011;3040;42.654;23.296;2023-05-23T03:54:18;8.17;;;7.47;;
6023;SDS011;3040;42.654;23.296;2023-05-23T03:56:45;7.50;;;6.83;;
6023;SDS011;3040;42.654;23.296;2023-05-23T03:59:11;11.93;;;8.43;;
6023;SDS011;3040;42.654;23.296;2023-05-23T04:01:38;9.20;;;8.43;;
6023;SDS011;3040;42.654;23.296;2023-05-23T04:04:06;11.27;;;10.00;;
6023;SDS011;3040;42.654;23.296;2023-05-23T04:06:33;21.63;;;14.17;;
6023;SDS011;3040;42.654;23.296;2023-05-23T04:09:00;22.23;;;14.33;;
6023;SDS011;3040;42.654;23.296;2023-05-23T04:11:27;18.10;;;13.67;;
6023;SDS011;3040;42.654;23.296;2023-05-23T04:13:54;18.43;;;14.27;;
6023;SDS011;3040;42.654;23.296;2023-05-23T04:16:22;17.83;;;15.43;;
6023;SDS011;3040;42.654;23.296;2023-05-23T04:18:49;28.67;;;18.37;;
6023;SDS011;3040;42.654;23.296;2023-05-23T04:21:18;40.17;;;16.17;;
6023;SDS011;3040;42.654;23.296;2023-05-23T04:23:45;43.40;;;15.30;;
6023;SDS011;3040;42.654;23.296;2023-05-23T04:26:11;26.80;;;16.27;;
6023;SDS011;3040;42.654;23.296;2023-05-23T04:28:38;37.90;;;19.00;;
6023;SDS011;3040;42.654;23.296;2023-05-23T04:31:07;22.77;;;16.23;;
6023;SDS011;3040;42.654;23.296;2023-05-23T04:33:34;18.43;;;14.63;;
6023;SDS011;3040;42.654;23.296;2023-05-23T04:36:01;28.37;;;17.10;;
6023;SDS011;3040;42.654;23.296;2023-05-23T04:38:29;37.60;;;18.67;;
6023;SDS011;3040;42.654;23.296;2023-05-23T04:40:57;16.27;;;14.57;;
6023;SDS011;3040;42.654;23.296;2023-05-23T04:43:24;20.90;;;16.77;;
6023;SDS011;3040;42.654;23.296;2023-05-23T04:45:53;20.70;;;15.23;;
6023;SDS011;3040;42.654;23.296;2023-05-23T04:48:21;19.83;;;15.27;;
6023;SDS011;3040;42.654;23.296;2023-05-23T04:50:48;27.93;;;15.70;;
6023;SDS011;3040;42.654;23.296;2023-05-23T04:53:16;23.60;;;15.83;;
6023;SDS011;3040;42.654;23.296;2023-05-23T04:55:45;27.50;;;18.47;;
6023;SDS011;3040;42.654;23.296;2023-05-23T04:58:11;30.07;;;17.40;;
6023;SDS011;3040;42.654;23.296;2023-05-23T05:00:38;25.73;;;16.43;;
6023;SDS011;3040;42.654;23.296;2023-05-23T05:03:05;26.43;;;15.80;;
6023;SDS011;3040;42.654;23.296;2023-05-23T05:05:34;23.47;;;16.07;;
6023;SDS011;3040;42.654;23.296;2023-05-23T05:08:01;20.13;;;16.50;;
6023;SDS011;3040;42.654;23.296;2023-05-23T05:10:28;20.90;;;16.93;;
6023;SDS011;3040;42.654;23.296;2023-05-23T05:12:56;20.13;;;17.20;;
6023;SDS011;3040;42.654;23.296;2023-05-23T05:15:23;25.80;;;17.10;;
6023;SDS011;3040;42.654;23.296;2023-05-23T05:17:50;34.00;;;17.30;;
6023;SDS011;3040;42.654;23.296;2023-05-23T05:20:17;18.80;;;16.47;;
6023;SDS011;3040;42.654;23.296;2023-05-23T05:22:45;39.10;;;21.40;;
6023;SDS011;3040;42.654;23.296;2023-05-23T05:25:13;27.83;;;17.67;;
6023;SDS011;3040;42.654;23.296;2023-05-23T05:27:40;24.13;;;17.73;;
6023;SDS011;3040;42.654;23.296;2023-05-23T05:30:09;26.73;;;18.93;;
6023;SDS011;3040;42.654;23.296;2023-05-23T05:32:36;18.80;;;16.80;;
6023;SDS011;3040;42.654;23.296;2023-05-23T05:35:03;22.00;;;17.33;;
6023;SDS011;3040;42.654;23.296;2023-05-23T05:37:31;28.33;;;19.93;;
6023;SDS011;3040;42.654;23.296;2023-05-23T05:39:58;24.63;;;18.40;;
6023;SDS011;3040;42.654;23.296;2023-05-23T05:42:30;21.80;;;17.70;;
6023;SDS011;3040;42.654;23.296;2023-05-23T05:44:57;23.67;;;18.40;;
6023;SDS011;3040;42.654;23.296;2023-05-23T05:47:25;26.83;;;19.50;;
6023;SDS011;3040;42.654;23.296;2023-05-23T05:49:52;21.57;;;19.47;;
6023;SDS011;3040;42.654;23.296;2023-05-23T05:52:19;20.33;;;18.23;;
6023;SDS011;3040;42.654;23.296;2023-05-23T05:54:46;23.93;;;19.70;;
6023;SDS011;3040;42.654;23.296;2023-05-23T05:57:13;43.90;;;22.53;;
6023;SDS011;3040;42.654;23.296;2023-05-23T05:59:40;25.87;;;18.33;;
6023;SDS011;3040;42.654;23.296;2023-05-23T06:02:06;19.47;;;17.57;;
6023;SDS011;3040;42.654;23.296;2023-05-23T06:04:34;23.50;;;18.80;;
6023;SDS011;3040;42.654;23.296;2023-05-23T06:07:01;20.53;;;17.73;;
6023;SDS011;3040;42.654;23.296;2023-05-23T06:09:28;29.87;;;18.30;;
6023;SDS011;3040;42.654;23.296;2023-05-23T06:11:55;21.67;;;16.80;;
6023;SDS011;3040;42.654;23.296;2023-05-23T06:14:22;18.27;;;16.30;;
6023;SDS011;3040;42.654;23.296;2023-05-23T06:16:49;23.70;;;16.17;;
6023;SDS011;3040;42.654;23.296;2023-05-23T06:19:16;19.07;;;16.17;;
6023;SDS011;3040;42.654;23.296;2023-05-23T06:21:44;24.63;;;17.63;;
6023;SDS011;3040;42.654;23.296;2023-05-23T06:24:11;23.73;;;17.30;;
6023;SDS011;3040;42.654;23.296;2023-05-23T06:26:38;22.60;;;17.53;;
6023;SDS011;3040;42.654;23.296;2023-05-23T06:29:04;24.70;;;18.83;;
6023;SDS011;3040;42.654;23.296;2023-05-23T06:31:31;24.73;;;19.17;;
6023;SDS011;3040;42.654;23.296;2023-05-23T06:33:58;22.60;;;19.67;;
6023;SDS011;3040;42.654;23.296;2023-05-23T06:36:26;30.30;;;21.63;;
6023;SDS011;3040;42.654;23.296;2023-05-23T06:38:54;27.00;;;22.53;;
6023;SDS011;3040;42.654;23.296;2023-05-23T06:41:21;32.17;;;20.93;;
6023;SDS011;3040;42.654;23.296;2023-05-23T06:43:48;33.77;;;22.27;;
6023;SDS011;3040;42.654;23.296;2023-05-23T06:46:14;23.20;;;20.80;;
6023;SDS011;3040;42.654;23.296;2023-05-23T06:48:41;23.40;;;20.90;;
6023;SDS011;3040;42.654;23.296;2023-05-23T06:51:08;23.90;;;21.50;;
6023;SDS011;3040;42.654;23.296;2023-05-23T06:53:35;24.90;;;20.67;;
6023;SDS011;3040;42.654;23.296;2023-05-23T06:56:04;25.90;;;20.10;;
6023;SDS011;3040;42.654;23.296;2023-05-23T06:58:31;32.20;;;20.73;;
6023;SDS011;3040;42.654;23.296;2023-05-23T07:00:57;21.97;;;18.00;;
6023;SDS011;3040;42.654;23.296;2023-05-23T07:03:24;27.43;;;18.37;;
6023;SDS011;3040;42.654;23.296;2023-05-23T07:05:51;20.43;;;17.67;;
6023;SDS011;3040;42.654;23.296;2023-05-23T07:08:18;28.70;;;18.03;;
6023;SDS011;3040;42.654;23.296;2023-05-23T07:10:45;23.23;;;18.57;;
6023;SDS011;3040;42.654;23.296;2023-05-23T07:13:13;24.40;;;19.10;;
6023;SDS011;3040;42.654;23.296;2023-05-23T07:15:40;24.03;;;19.13;;
6023;SDS011;3040;42.654;23.296;2023-05-23T07:18:07;24.83;;;20.03;;
6023;SDS011;3040;42.654;23.296;2023-05-23T07:20:34;23.87;;;19.83;;
6023;SDS011;3040;42.654;23.296;2023-05-23T07:23:01;23.43;;;19.50;;
6023;SDS011;3040;42.654;23.296;2023-05-23T07:25:27;45.97;;;22.30;;
6023;SDS011;3040;42.654;23.296;2023-05-23T07:27:54;29.63;;;19.50;;
6023;SDS011;3040;42.654;23.296;2023-05-23T07:30:22;28.07;;;20.20;;
6023;SDS011;3040;42.654;23.296;2023-05-23T07:32:49;36.00;;;19.13;;
6023;SDS011;3040;42.654;23.296;2023-05-23T07:35:16;29.10;;;18.37;;
6023;SDS011;3040;42.654;23.296;2023-05-23T07:37:48;21.87;;;17.37;;
6023;SDS011;3040;42.654;23.296;2023-05-23T07:40:15;26.13;;;16.13;;
6023;SDS011;3040;42.654;23.296;2023-05-23T07:42:42;23.37;;;12.97;;
6023;SDS011;3040;42.654;23.296;2023-05-23T07:45:10;15.23;;;11.40;;
6023;SDS011;3040;42.654;23.296;2023-05-23T07:47:38;17.33;;;13.30;;
6023;SDS011;3040;42.654;23.296;2023-05-23T07:50:06;20.97;;;15.37;;
6023;SDS011;3040;42.654;23.296;2023-05-23T08:15:51;13.27;;;12.00;;
6023;SDS011;3040;42.654;23.296;2023-05-23T08:18:18;21.10;;;12.27;;
6023;SDS011;3040;42.654;23.296;2023-05-23T08:20:45;21.57;;;11.97;;
6023;SDS011;3040;42.654;23.296;2023-05-23T08:23:12;16.17;;;12.20;;
6023;SDS011;3040;42.654;23.296;2023-05-23T08:25:39;13.27;;;12.37;;
6023;SDS011;3040;42.654;23.296;2023-05-23T08:28:05;23.67;;;13.07;;
6023;SDS011;3040;42.654;23.296;2023-05-23T08:30:32;17.47;;;14.70;;
6023;SDS011;3040;42.654;23.296;2023-05-23T08:33:00;14.90;;;12.70;;
6023;SDS011;3040;42.654;23.296;2023-05-23T08:35:28;15.10;;;11.00;;
6023;SDS011;3040;42.654;23.296;2023-05-23T08:37:59;14.00;;;10.93;;
6023;SDS011;3040;42.654;23.296;2023-05-23T08:40:26;14.67;;;9.50;;
6023;SDS011;3040;42.654;23.296;2023-05-23T08:42:55;14.60;;;10.17;;
6023;SDS011;3040;42.654;23.296;2023-05-23T08:45:22;11.87;;;8.53;;
6023;SDS011;3040;42.654;23.296;2023-05-23T08:47:50;10.97;;;9.80;;
6023;SDS011;3040;42.654;23.296;2023-05-23T08:50:19;53.03;;;10.93;;
6023;SDS011;3040;42.654;23.296;2023-05-23T08:52:47;16.27;;;8.60;;
6023;SDS011;3040;42.654;23.296;2023-05-23T08:55:19;34.33;;;8.77;;
6023;SDS011;3040;42.654;23.296;2023-05-23T08:57:49;7.70;;;7.10;;
6023;SDS011;3040;42.654;23.296;2023-05-23T09:00:16;14.07;;;7.07;;
6023;SDS011;3040;42.654;23.296;2023-05-23T09:02:44;9.57;;;6.73;;
6023;SDS011;3040;42.654;23.296;2023-05-23T09:05:12;6.07;;;5.70;;
6023;SDS011;3040;42.654;23.296;2023-05-23T09:07:40;7.90;;;6.30;;
6023;SDS011;3040;42.654;23.296;2023-05-23T09:10:09;8.03;;;7.23;;
6023;SDS011;3040;42.654;23.296;2023-05-23T09:12:36;7.97;;;6.67;;
6023;SDS011;3040;42.654;23.296;2023-05-23T09:15:03;19.67;;;7.13;;
6023;SDS011;3040;42.654;23.296;2023-05-23T09:17:30;6.67;;;5.77;;
6023;SDS011;3040;42.654;23.296;2023-05-23T09:19:57;5.33;;;4.87;;
6023;SDS011;3040;42.654;23.296;2023-05-23T09:22:24;9.73;;;4.83;;
6023;SDS011;3040;42.654;23.296;2023-05-23T09:24:53;23.60;;;5.67;;
6023;SDS011;3040;42.654;23.296;2023-05-23T09:27:21;4.97;;;4.67;;
6023;SDS011;3040;42.654;23.296;2023-05-23T09:29:49;4.43;;;4.13;;
6023;SDS011;3040;42.654;23.296;2023-05-23T09:32:16;4.13;;;3.63;;
6023;SDS011;3040;42.654;23.296;2023-05-23T09:34:57;12.00;;;3.93;;
6023;SDS011;3040;42.654;23.296;2023-05-23T09:37:29;12.43;;;3.37;;
6023;SDS011;3040;42.654;23.296;2023-05-23T09:40:00;5.00;;;3.30;;
6023;SDS011;3040;42.654;23.296;2023-05-23T09:42:31;4.70;;;3.40;;
6023;SDS011;3040;42.654;23.296;2023-05-23T09:44:59;7.50;;;3.40;;
6023;SDS011;3040;42.654;23.296;2023-05-23T09:47:26;7.77;;;3.57;;
6023;SDS011;3040;42.654;23.296;2023-05-23T09:49:53;5.40;;;3.50;;
6023;SDS011;3040;42.654;23.296;2023-05-23T09:52:20;3.00;;;2.67;;
6023;SDS011;3040;42.654;23.296;2023-05-23T09:54:46;2.83;;;2.60;;
6023;SDS011;3040;42.654;23.296;2023-05-23T09:57:15;3.67;;;3.43;;
6023;SDS011;3040;42.654;23.296;2023-05-23T09:59:44;5.57;;;3.00;;
6023;SDS011;3040;42.654;23.296;2023-05-23T10:02:19;4.27;;;2.97;;
6023;SDS011;3040;42.654;23.296;2023-05-23T10:05:02;5.07;;;3.80;;
6023;SDS011;3040;42.654;23.296;2023-05-23T10:07:31;8.40;;;3.23;;
6023;SDS011;3040;42.654;23.296;2023-05-23T10:10:00;3.40;;;3.10;;
6023;SDS011;3040;42.654;23.296;2023-05-23T10:12:38;2.83;;;2.63;;
6023;SDS011;3040;42.654;23.296;2023-05-23T10:15:08;5.33;;;3.33;;
6023;SDS011;3040;42.654;23.296;2023-05-23T10:17:38;3.50;;;2.53;;
6023;SDS011;3040;42.654;23.296;2023-05-23T10:20:18;3.30;;;3.10;;
6023;SDS011;3040;42.654;23.296;2023-05-23T10:22:50;3.50;;;3.13;;
6023;SDS011;3040;42.654;23.296;2023-05-23T10:25:18;4.00;;;3.60;;
6023;SDS011;3040;42.654;23.296;2023-05-23T10:27:46;3.93;;;3.03;;
6023;SDS011;3040;42.654;23.296;2023-05-23T10:30:14;3.40;;;3.17;;
6023;SDS011;3040;42.654;23.296;2023-05-23T10:32:41;3.40;;;2.80;;
6023;SDS011;3040;42.654;23.296;2023-05-23T10:35:10;4.77;;;3.37;;
6023;SDS011;3040;42.654;23.296;2023-05-23T10:37:44;3.73;;;2.73;;
6023;SDS011;3040;42.654;23.296;2023-05-23T10:40:17;3.70;;;2.80;;
6023;SDS011;3040;42.654;23.296;2023-05-23T10:42:53;5.03;;;3.53;;
6023;SDS011;3040;42.654;23.296;2023-05-23T10:45:26;3.33;;;2.90;;
6023;SDS011;3040;42.654;23.296;2023-05-23T10:47:53;3.83;;;3.37;;
6023;SDS011;3040;42.654;23.296;2023-05-23T10:50:30;4.50;;;3.10;;
6023;SDS011;3040;42.654;23.296;2023-05-23T10:52:59;7.90;;;3.23;;
6023;SDS011;3040;42.654;23.296;2023-05-23T10:55:30;4.33;;;2.63;;
6023;SDS011;3040;42.654;23.296;2023-05-23T10:58:14;3.40;;;3.20;;
6023;SDS011;3040;42.654;23.296;2023-05-23T11:00:49;3.90;;;3.30;;
6023;SDS011;3040;42.654;23.296;2023-05-23T11:03:18;2.87;;;2.67;;
6023;SDS011;3040;42.654;23.296;2023-05-23T11:05:58;5.77;;;3.60;;
6023;SDS011;3040;42.654;23.296;2023-05-23T11:08:25;2.90;;;2.80;;
6023;SDS011;3040;42.654;23.296;2023-05-23T11:10:55;3.30;;;2.57;;
6023;SDS011;3040;42.654;23.296;2023-05-23T11:13:52;4.40;;;2.67;;
6023;SDS011;3040;42.654;23.296;2023-05-23T11:16:28;3.40;;;3.10;;
6023;SDS011;3040;42.654;23.296;2023-05-23T11:21:51;2.70;;;2.50;;
6023;SDS011;3040;42.654;23.296;2023-05-23T11:24:19;3.30;;;3.00;;
6023;SDS011;3040;42.654;23.296;2023-05-23T11:26:52;6.03;;;2.63;;
6023;SDS011;3040;42.654;23.296;2023-05-23T11:29:25;2.93;;;2.73;;
6023;SDS011;3040;42.654;23.296;2023-05-23T11:31:54;2.97;;;2.63;;
6023;SDS011;3040;42.654;23.296;2023-05-23T11:34:21;3.53;;;3.00;;
6023;SDS011;3040;42.654;23.296;2023-05-23T11:36:51;3.07;;;2.77;;
6023;SDS011;3040;42.654;23.296;2023-05-23T11:39:19;6.17;;;2.70;;
6023;SDS011;3040;42.654;23.296;2023-05-23T11:41:49;5.00;;;4.60;;
6023;SDS011;3040;42.654;23.296;2023-05-23T11:44:25;5.10;;;3.93;;
6023;SDS011;3040;42.654;23.296;2023-05-23T11:46:58;3.33;;;3.17;;
6023;SDS011;3040;42.654;23.296;2023-05-23T11:49:27;10.67;;;3.60;;
6023;SDS011;3040;42.654;23.296;2023-05-23T11:51:55;3.30;;;3.00;;
6023;SDS011;3040;42.654;23.296;2023-05-23T11:54:22;4.50;;;2.70;;
6023;SDS011;3040;42.654;23.296;2023-05-23T11:56:49;3.97;;;2.80;;
6023;SDS011;3040;42.654;23.296;2023-05-23T11:59:16;2.97;;;2.80;;
6023;SDS011;3040;42.654;23.296;2023-05-23T12:01:44;2.67;;;2.57;;
6023;SDS011;3040;42.654;23.296;2023-05-23T12:04:11;3.37;;;3.10;;
6023;SDS011;3040;42.654;23.296;2023-05-23T12:06:38;5.43;;;2.80;;
6023;SDS011;3040;42.654;23.296;2023-05-23T12:09:05;3.53;;;3.30;;
6023;SDS011;3040;42.654;23.296;2023-05-23T12:11:33;7.90;;;3.10;;
6023;SDS011;3040;42.654;23.296;2023-05-23T12:14:00;3.77;;;3.40;;
6023;SDS011;3040;42.654;23.296;2023-05-23T12:16:31;4.20;;;3.23;;
6023;SDS011;3040;42.654;23.296;2023-05-23T12:18:59;3.17;;;3.00;;
6023;SDS011;3040;42.654;23.296;2023-05-23T12:21:39;3.00;;;2.80;;
6023;SDS011;3040;42.654;23.296;2023-05-23T12:24:15;3.00;;;2.70;;
6023;SDS011;3040;42.654;23.296;2023-05-23T12:26:46;5.80;;;3.53;;
6023;SDS011;3040;42.654;23.296;2023-05-23T12:29:14;3.10;;;2.83;;
6023;SDS011;3040;42.654;23.296;2023-05-23T12:31:43;7.13;;;3.30;;
6023;SDS011;3040;42.654;23.296;2023-05-23T12:34:14;2.80;;;2.60;;
6023;SDS011;3040;42.654;23.296;2023-05-23T12:36:41;2.47;;;2.37;;
6023;SDS011;3040;42.654;23.296;2023-05-23T12:39:09;3.00;;;2.80;;
6023;SDS011;3040;42.654;23.296;2023-05-23T12:41:37;3.67;;;2.93;;
6023;SDS011;3040;42.654;23.296;2023-05-23T12:44:07;3.67;;;3.33;;
6023;SDS011;3040;42.654;23.296;2023-05-23T12:46:34;6.23;;;3.17;;
6023;SDS011;3040;42.654;23.296;2023-05-23T12:49:01;2.77;;;2.57;;
6023;SDS011;3040;42.654;23.296;2023-05-23T12:51:29;3.50;;;3.20;;
6023;SDS011;3040;42.654;23.296;2023-05-23T12:53:56;4.87;;;2.83;;
6023;SDS011;3040;42.654;23.296;2023-05-23T12:56:23;4.83;;;3.53;;
6023;SDS011;3040;42.654;23.296;2023-05-23T12:58:50;2.40;;;2.30;;
6023;SDS011;3040;42.654;23.296;2023-05-23T13:01:17;4.23;;;2.90;;
6023;SDS011;3040;42.654;23.296;2023-05-23T13:03:45;3.93;;;2.97;;
6023;SDS011;3040;42.654;23.296;2023-05-23T13:06:12;2.90;;;2.67;;
6023;SDS011;3040;42.654;23.296;2023-05-23T13:08:40;6.43;;;2.60;;
6023;SDS011;3040;42.654;23.296;2023-05-23T13:11:07;2.40;;;2.30;;
6023;SDS011;3040;42.654;23.296;2023-05-23T13:13:34;2.83;;;2.73;;
6023;SDS011;3040;42.654;23.296;2023-05-23T13:16:01;5.57;;;2.47;;
6023;SDS011;3040;42.654;23.296;2023-05-23T13:18:28;4.23;;;2.23;;
6023;SDS011;3040;42.654;23.296;2023-05-23T13:20:54;3.10;;;2.80;;
6023;SDS011;3040;42.654;23.296;2023-05-23T13:23:21;3.97;;;2.60;;
6023;SDS011;3040;42.654;23.296;2023-05-23T13:25:51;3.30;;;3.10;;
6023;SDS011;3040;42.654;23.296;2023-05-23T13:28:18;2.33;;;2.23;;
6023;SDS011;3040;42.654;23.296;2023-05-23T13:30:45;10.57;;;3.67;;
6023;SDS011;3040;42.654;23.296;2023-05-23T13:33:12;2.50;;;2.33;;
6023;SDS011;3040;42.654;23.296;2023-05-23T13:35:38;3.00;;;2.63;;
6023;SDS011;3040;42.654;23.296;2023-05-23T13:38:05;3.20;;;3.00;;
6023;SDS011;3040;42.654;23.296;2023-05-23T13:40:32;4.77;;;2.70;;
6023;SDS011;3040;42.654;23.296;2023-05-23T13:43:00;7.17;;;3.00;;
6023;SDS011;3040;42.654;23.296;2023-05-23T13:45:27;2.97;;;2.77;;
6023;SDS011;3040;42.654;23.296;2023-05-23T13:47:55;5.47;;;2.90;;
6023;SDS011;3040;42.654;23.296;2023-05-23T13:50:21;10.50;;;3.53;;
6023;SDS011;3040;42.654;23.296;2023-05-23T13:52:48;3.70;;;3.13;;
6023;SDS011;3040;42.654;23.296;2023-05-23T13:55:15;3.67;;;3.13;;
6023;SDS011;3040;42.654;23.296;2023-05-23T13:57:43;4.70;;;4.20;;
6023;SDS011;3040;42.654;23.296;2023-05-23T14:00:12;4.20;;;3.20;;
6023;SDS011;3040;42.654;23.296;2023-05-23T14:02:40;6.37;;;2.90;;
6023;SDS011;3040;42.654;23.296;2023-05-23T14:05:07;4.30;;;2.63;;
6023;SDS011;3040;42.654;23.296;2023-05-23T14:07:35;6.20;;;2.90;;
6023;SDS011;3040;42.654;23.296;2023-05-23T14:10:03;3.20;;;2.50;;
6023;SDS011;3040;42.654;23.296;2023-05-23T14:12:31;3.00;;;2.80;;
6023;SDS011;3040;42.654;23.296;2023-05-23T14:14:58;2.97;;;2.77;;
6023;SDS011;3040;42.654;23.296;2023-05-23T14:17:26;4.90;;;3.23;;
6023;SDS011;3040;42.654;23.296;2023-05-23T14:19:53;3.57;;;3.27;;
6023;SDS011;3040;42.654;23.296;2023-05-23T14:22:20;3.70;;;2.80;;
6023;SDS011;3040;42.654;23.296;2023-05-23T14:24:47;3.87;;;2.90;;
6023;SDS011;3040;42.654;23.296;2023-05-23T14:27:13;5.53;;;3.70;;
6023;SDS011;3040;42.654;23.296;2023-05-23T14:29:40;4.73;;;3.30;;
6023;SDS011;3040;42.654;23.296;2023-05-23T14:32:10;3.87;;;3.07;;
6023;SDS011;3040;42.654;23.296;2023-05-23T14:34:38;4.70;;;2.90;;
6023;SDS011;3040;42.654;23.296;2023-05-23T14:37:05;3.47;;;3.17;;
6023;SDS011;3040;42.654;23.296;2023-05-23T14:39:32;5.17;;;3.47;;
6023;SDS011;3040;42.654;23.296;2023-05-23T14:41:59;3.50;;;3.20;;
6023;SDS011;3040;42.654;23.296;2023-05-23T14:44:27;4.13;;;3.30;;
6023;SDS011;3040;42.654;23.296;2023-05-23T14:46:54;6.40;;;3.40;;
6023;SDS011;3040;42.654;23.296;2023-05-23T14:49:20;3.27;;;3.07;;
6023;SDS011;3040;42.654;23.296;2023-05-23T14:51:49;3.17;;;3.03;;
6023;SDS011;3040;42.654;23.296;2023-05-23T14:54:15;3.53;;;3.20;;
6023;SDS011;3040;42.654;23.296;2023-05-23T14:56:42;5.87;;;3.57;;
6023;SDS011;3040;42.654;23.296;2023-05-23T14:59:09;4.10;;;3.30;;
6023;SDS011;3040;42.654;23.296;2023-05-23T15:01:36;7.77;;;3.37;;
6023;SDS011;3040;42.654;23.296;2023-05-23T15:04:03;2.77;;;2.53;;
6023;SDS011;3040;42.654;23.296;2023-05-23T15:06:32;9.33;;;3.10;;
6023;SDS011;3040;42.654;23.296;2023-05-23T15:09:01;3.57;;;3.10;;
6023;SDS011;3040;42.654;23.296;2023-05-23T15:11:28;4.47;;;2.87;;
6023;SDS011;3040;42.654;23.296;2023-05-23T15:13:56;2.80;;;2.70;;
6023;SDS011;3040;42.654;23.296;2023-05-23T15:16:23;7.07;;;3.20;;
6023;SDS011;3040;42.654;23.296;2023-05-23T15:18:50;5.43;;;3.20;;
6023;SDS011;3040;42.654;23.296;2023-05-23T15:21:17;5.63;;;2.70;;
6023;SDS011;3040;42.654;23.296;2023-05-23T15:23:44;3.23;;;3.03;;
6023;SDS011;3040;42.654;23.296;2023-05-23T15:26:12;3.53;;;2.90;;
6023;SDS011;3040;42.654;23.296;2023-05-23T15:28:39;3.50;;;3.30;;